To NAV CANADA Home Page Login to a new session Search on AWWS site Feedback and Comments Disclaimer Vers la page française équivalente Tips FAQ What's new on the site To the Forecasts and Observations / NOTAM section To "File a Flight Plan" website Publications and other links Update of the User's profile FIC Telephone Numbers My Weather Data Folder Route Weather Data Regional Weather Data Local Weather Data To the Forecasts and Observations / NOTAM section
Request Generated 05/24/2016 at 05:54:14 UTC . Weather information available at that time is displayed.

METAR/TAF

NORTH BATTLEFORD/SK    (show WxCam)

SPECI CYQW 240503Z AUTO 34005KT 9SM BKN017 BKN025 OVC034 09/09 A2976
RMK SLP090=
METAR CYQW 240500Z AUTO 34005KT 9SM SCT017 BKN028 BKN038 OVC100 09/09
A2976 RMK SLP090=
METAR CYQW 240400Z AUTO 34005KT 9SM OVC090 09/09 A2974 RMK SLP086=
METAR CYQW 240300Z AUTO 01005KT 9SM FEW065 OVC088 10/10 A2972 RMK
SLP077=

TAF CYQW 240538Z 2406/2418 34005KT P6SM SCT015 OVC025 TEMPO 2406/2409
4SM -SHRA BR OVC012
FM240900 06012KT 6SM -SHRA BR SCT006 OVC015 TEMPO 2409/2416 2SM
-SHRA BR OVC006
FM241600 08012KT P6SM -SHRA SCT008 OVC020
RMK FCST BASED ON AUTO OBS. NXT FCST BY 241200Z=
Your time UTC time
Weather data provided by Environment Canada and NAV CANADA